createdAt,value
2023-02-19T00:02:56.058Z,91.83
2023-02-19T00:06:58.733Z,92.19
2023-02-19T00:11:03.889Z,91.43
2023-02-19T00:15:07.001Z,90.90
2023-02-19T00:19:14.284Z,90.78
2023-02-19T00:23:16.963Z,90.11
2023-02-19T00:27:20.954Z,89.64
2023-02-19T00:31:25.878Z,89.86
2023-02-19T00:35:28.749Z,90.34
2023-02-19T00:39:31.572Z,90.86
2023-02-19T00:43:35.556Z,91.10
2023-02-19T00:47:38.148Z,91.61
2023-02-19T00:51:40.756Z,91.99
2023-02-19T00:55:44.057Z,91.65
2023-02-19T00:59:48.024Z,91.62
2023-02-19T01:03:50.732Z,91.30
2023-02-19T01:07:53.343Z,90.65
2023-02-19T01:11:55.980Z,90.48
2023-02-19T01:16:06.026Z,88.76
2023-02-19T01:20:09.445Z,88.71
2023-02-19T01:24:12.142Z,88.96
2023-02-19T01:28:14.776Z,89.48
2023-02-19T01:32:18.787Z,90.00
2023-02-19T01:36:21.603Z,91.11
2023-02-19T01:40:24.575Z,91.78
2023-02-19T01:45:16.009Z,92.13
2023-02-19T01:49:24.433Z,92.39
2023-02-19T01:53:32.413Z,93.05
2023-02-19T01:57:39.058Z,93.20
2023-02-19T02:01:42.081Z,93.58
2023-02-19T02:05:57.716Z,93.65
2023-02-19T02:10:18.003Z,94.19
2023-02-19T02:14:25.149Z,94.26
2023-02-19T02:18:39.186Z,94.56
2023-02-19T02:22:49.666Z,94.65
2023-02-19T02:27:12.361Z,95.08
2023-02-19T02:31:19.374Z,94.92
2023-02-19T02:35:25.117Z,95.24
2023-02-19T02:39:29.130Z,95.29
2023-02-19T02:43:32.066Z,94.98
2023-02-19T02:47:44.713Z,95.17
2023-02-19T02:51:51.923Z,95.05
2023-02-19T02:55:55.649Z,94.79
2023-02-19T02:59:58.378Z,94.90
2023-02-19T03:04:06.102Z,94.29
2023-02-19T03:08:11.856Z,94.64
2023-02-19T03:12:34.151Z,94.49
2023-02-19T03:16:57.191Z,94.41
2023-02-19T03:21:02.651Z,94.58
2023-02-19T03:25:39.614Z,95.17
2023-02-19T03:29:44.107Z,94.64
2023-02-19T03:33:51.272Z,94.83
2023-02-19T03:38:01.862Z,95.01
2023-02-19T03:42:12.624Z,94.79
2023-02-19T03:46:23.137Z,95.28
2023-02-19T03:50:30.296Z,95.05
2023-02-19T03:54:39.338Z,95.21
2023-02-19T03:58:51.985Z,95.04
2023-02-19T04:02:59.688Z,95.14
2023-02-19T04:07:02.444Z,95.20
2023-02-19T04:11:08.730Z,95.04
2023-02-19T04:15:15.369Z,95.43
2023-02-19T04:19:20.437Z,95.34
2023-02-19T04:23:27.180Z,95.49
2023-02-19T04:27:31.266Z,95.62
2023-02-19T04:31:36.258Z,95.85
2023-02-19T04:35:38.956Z,95.88
2023-02-19T04:39:41.541Z,95.64
2023-02-19T04:43:45.486Z,95.81
2023-02-19T04:47:48.038Z,95.67
2023-02-19T04:51:50.599Z,95.08
2023-02-19T04:55:53.877Z,95.08
2023-02-19T04:59:57.856Z,94.50
2023-02-19T05:04:00.466Z,93.38
2023-02-19T05:08:03.085Z,93.37
2023-02-19T05:12:05.879Z,93.23
2023-02-19T05:16:13.802Z,93.22
2023-02-19T05:20:16.513Z,92.78
2023-02-19T05:24:20.347Z,92.58
2023-02-19T05:28:28.605Z,93.16
2023-02-19T05:32:32.576Z,93.06
2023-02-19T05:36:37.143Z,93.18
2023-02-19T05:40:40.303Z,93.51
2023-02-19T05:44:43.190Z,93.16
2023-02-19T05:48:47.104Z,92.99
2023-02-19T05:52:49.780Z,92.59
2023-02-19T05:56:52.607Z,92.03
2023-02-19T06:00:55.317Z,91.27
2023-02-19T06:04:59.190Z,91.44
2023-02-19T06:09:01.825Z,91.67
2023-02-19T06:13:04.423Z,91.90
2023-02-19T06:17:07.191Z,92.97
2023-02-19T06:21:13.259Z,92.97
2023-02-19T06:25:15.925Z,92.94
2023-02-19T06:29:18.640Z,92.56
2023-02-19T06:33:21.183Z,91.20
2023-02-19T06:37:25.079Z,90.46
2023-02-19T06:41:27.746Z,89.47
2023-02-19T06:45:30.314Z,89.24
2023-02-19T06:49:32.859Z,88.91
2023-02-19T06:53:36.794Z,88.00
2023-02-19T06:57:39.363Z,88.38
2023-02-19T07:01:41.929Z,88.14
2023-02-19T07:05:44.630Z,87.14
2023-02-19T07:09:48.535Z,86.59
2023-02-19T07:13:55.886Z,86.79
2023-02-19T07:17:58.461Z,86.09
2023-02-19T07:22:01.036Z,86.91
2023-02-19T07:26:06.051Z,86.82
2023-02-19T07:30:09.628Z,86.89
2023-02-19T07:34:12.285Z,86.84
2023-02-19T07:38:17.874Z,86.17
2023-02-19T07:42:21.862Z,86.49
2023-02-19T07:46:25.430Z,86.41
2023-02-19T07:50:28.250Z,85.88
2023-02-19T07:54:30.832Z,85.62
2023-02-19T07:58:35.773Z,85.53
2023-02-19T08:02:55.746Z,85.75
2023-02-19T08:06:58.311Z,86.08
2023-02-19T08:11:19.322Z,83.95
2023-02-19T08:15:23.310Z,84.54
2023-02-19T08:19:26.208Z,84.07
2023-02-19T08:23:29.753Z,84.11
2023-02-19T08:27:32.445Z,84.59
2023-02-19T08:31:36.629Z,84.17
2023-02-19T08:35:40.056Z,84.42
2023-02-19T08:39:42.706Z,84.03
2023-02-19T08:43:45.534Z,84.75
2023-02-19T08:47:49.572Z,84.63
2023-02-19T08:51:52.206Z,85.54
2023-02-19T08:55:55.716Z,84.81
2023-02-19T08:59:58.882Z,83.85
2023-02-19T09:04:02.964Z,84.05
2023-02-19T09:08:05.638Z,83.88
2023-02-19T09:12:12.408Z,84.38
2023-02-19T09:16:15.052Z,84.31
2023-02-19T09:20:23.615Z,84.22
2023-02-19T09:24:29.069Z,84.35
2023-02-19T09:28:42.058Z,82.31
2023-02-19T09:32:44.723Z,82.97
2023-02-19T09:36:49.817Z,82.34
2023-02-19T09:41:01.343Z,82.80
2023-02-19T09:45:06.498Z,83.84
2023-02-19T09:49:15.529Z,84.51
2023-02-19T09:53:23.126Z,84.85
2023-02-19T09:57:29.758Z,84.55
2023-02-19T10:01:38.668Z,84.47
2023-02-19T10:05:42.467Z,84.20
2023-02-19T10:09:49.951Z,83.26
2023-02-19T10:13:55.829Z,84.00
2023-02-19T10:17:59.028Z,83.29
2023-02-19T10:22:04.353Z,82.95
2023-02-19T10:26:08.543Z,82.42
2023-02-19T10:30:20.824Z,82.43
2023-02-19T10:34:24.068Z,82.83
2023-02-19T10:38:31.658Z,82.52
2023-02-19T10:42:35.825Z,81.26
2023-02-19T10:46:44.140Z,80.17
2023-02-19T10:50:56.059Z,80.83
2023-02-19T10:55:16.236Z,81.79
2023-02-19T10:59:26.594Z,82.09
2023-02-19T11:03:29.343Z,81.38
2023-02-19T11:07:32.381Z,81.13
2023-02-19T11:11:37.508Z,81.57
2023-02-19T11:15:41.850Z,80.38
2023-02-19T11:19:48.719Z,79.70
2023-02-19T11:23:51.672Z,78.86
2023-02-19T11:27:59.407Z,79.09
2023-02-19T11:32:30.611Z,77.53
2023-02-19T11:36:35.273Z,77.00
2023-02-19T11:40:45.498Z,76.56
2023-02-19T11:45:01.412Z,76.45
2023-02-19T11:49:19.874Z,77.03
2023-02-19T11:53:27.352Z,76.94
2023-02-19T11:57:41.596Z,76.05
2023-02-19T12:02:05.926Z,75.86
2023-02-19T12:06:20.443Z,75.95
2023-02-19T12:10:26.367Z,75.81
2023-02-19T12:14:56.847Z,76.28
2023-02-19T12:19:17.682Z,77.20
2023-02-19T12:23:46.183Z,78.09
2023-02-19T12:27:59.450Z,78.16
2023-02-19T12:32:21.996Z,78.25
2023-02-19T12:36:34.480Z,77.79
2023-02-19T12:40:51.739Z,76.98
2023-02-19T12:44:59.261Z,76.71
2023-02-19T12:49:07.978Z,76.20
2023-02-19T12:53:25.480Z,74.60
2023-02-19T12:57:35.224Z,75.55
2023-02-19T13:01:44.530Z,75.88
2023-02-19T13:05:53.554Z,74.84
2023-02-19T13:10:00.301Z,77.11
2023-02-19T13:14:12.319Z,76.98
2023-02-19T13:18:20.401Z,76.12
2023-02-19T13:22:48.053Z,75.41
2023-02-19T13:27:04.997Z,75.52
2023-02-19T13:31:25.586Z,73.83
2023-02-19T13:35:54.394Z,74.19
2023-02-19T13:39:59.287Z,71.88
2023-02-19T13:44:04.186Z,71.73
2023-02-19T13:48:27.863Z,69.94
2023-02-19T13:52:43.851Z,70.88
2023-02-19T13:56:46.455Z,71.08
2023-02-19T14:00:51.136Z,71.18
2023-02-19T14:04:57.368Z,70.94
2023-02-19T14:09:00.538Z,70.15
2023-02-19T14:13:03.115Z,69.72
2023-02-19T14:17:26.478Z,69.62
2023-02-19T14:21:38.470Z,69.20
2023-02-19T14:25:52.690Z,69.01
2023-02-19T14:29:55.653Z,67.97
2023-02-19T14:34:01.855Z,66.96
2023-02-19T14:38:07.393Z,67.86
2023-02-19T14:42:18.253Z,68.51
2023-02-19T14:46:30.126Z,69.15
2023-02-19T14:50:35.038Z,68.88
2023-02-19T14:54:44.504Z,69.35
2023-02-19T14:58:47.107Z,69.04
2023-02-19T15:02:50.892Z,69.47
2023-02-19T15:06:56.697Z,70.65
2023-02-19T15:11:03.772Z,71.78
2023-02-19T15:15:07.811Z,72.43
2023-02-19T15:19:13.130Z,72.72
2023-02-19T15:23:21.982Z,72.76
2023-02-19T15:27:26.083Z,73.50
2023-02-19T15:31:30.192Z,73.51
2023-02-19T15:35:33.464Z,74.84
2023-02-19T15:39:39.084Z,76.18
2023-02-19T15:43:50.642Z,77.06
2023-02-19T15:47:57.333Z,78.15
2023-02-19T15:52:06.724Z,79.23
2023-02-19T15:56:13.192Z,79.90
2023-02-19T16:00:20.695Z,81.04
2023-02-19T16:04:23.415Z,80.43
2023-02-19T16:08:31.012Z,82.85
2023-02-19T16:12:33.877Z,82.95
2023-02-19T16:16:41.056Z,83.77
2023-02-19T16:20:48.773Z,85.48
2023-02-19T16:24:53.219Z,85.04
2023-02-19T16:28:56.778Z,81.42
2023-02-19T16:33:37.255Z,83.79
2023-02-19T16:37:44.189Z,83.25
2023-02-19T16:42:13.106Z,83.96
2023-02-19T16:46:15.843Z,84.53
2023-02-19T16:50:20.942Z,84.72
2023-02-19T16:54:25.104Z,84.56
2023-02-19T16:58:27.837Z,85.66
2023-02-19T17:02:30.650Z,86.37
2023-02-19T17:06:34.743Z,84.92
2023-02-19T17:10:38.715Z,84.69
2023-02-19T17:14:41.411Z,85.66
2023-02-19T17:18:44.027Z,86.29
2023-02-19T17:22:46.749Z,86.43
2023-02-19T17:26:50.721Z,86.71
2023-02-19T17:30:53.354Z,86.58
2023-02-19T17:34:55.955Z,86.51
2023-02-19T17:38:59.643Z,86.69
2023-02-19T17:43:03.800Z,86.74
2023-02-19T17:47:06.682Z,86.40
2023-02-19T17:51:09.702Z,86.92
2023-02-19T17:55:15.691Z,86.47
2023-02-19T17:59:19.818Z,86.83
2023-02-19T18:03:22.464Z,86.96
2023-02-19T18:07:25.101Z,87.35
2023-02-19T18:11:27.827Z,87.78
2023-02-19T18:15:32.124Z,87.81
2023-02-19T18:19:34.829Z,88.30
2023-02-19T18:23:37.496Z,87.80
2023-02-19T18:27:40.381Z,88.67
2023-02-19T18:31:44.423Z,88.59
2023-02-19T18:35:50.243Z,88.59
2023-02-19T18:39:53.411Z,89.17
2023-02-19T18:43:56.065Z,89.34
2023-02-19T18:48:00.032Z,89.26
2023-02-19T18:52:02.738Z,89.26
2023-02-19T18:56:08.936Z,89.67
2023-02-19T19:00:17.573Z,90.11
2023-02-19T19:04:21.657Z,89.90
2023-02-19T19:08:24.414Z,89.91
2023-02-19T19:12:27.042Z,89.16
2023-02-19T19:16:30.404Z,89.02
2023-02-19T19:20:34.324Z,89.31
2023-02-19T19:24:37.224Z,88.88
2023-02-19T19:28:44.293Z,89.10
2023-02-19T19:32:48.838Z,89.04
2023-02-19T19:36:52.853Z,89.16
2023-02-19T19:40:55.457Z,89.02
2023-02-19T19:44:58.156Z,89.60
2023-02-19T19:49:01.043Z,89.49
2023-02-19T19:53:04.981Z,89.56
2023-02-19T19:57:07.960Z,89.95
2023-02-19T20:01:10.977Z,89.82
2023-02-19T20:05:15.232Z,89.97
2023-02-19T20:09:19.687Z,90.12
2023-02-19T20:13:24.436Z,89.86
2023-02-19T20:17:28.851Z,90.19
2023-02-19T20:21:31.714Z,90.07
2023-02-19T20:25:35.681Z,90.60
2023-02-19T20:29:38.400Z,90.08
2023-02-19T20:33:41.005Z,90.33
2023-02-19T20:37:44.402Z,90.42
2023-02-19T20:41:49.524Z,90.34
2023-02-19T20:45:52.181Z,89.98
2023-02-19T20:49:54.810Z,89.87
2023-02-19T20:53:58.265Z,89.55
2023-02-19T20:58:02.256Z,89.33
2023-02-19T21:02:06.754Z,89.06
2023-02-19T21:06:09.653Z,89.00
2023-02-19T21:10:13.181Z,89.14
2023-02-19T21:14:17.586Z,89.22
2023-02-19T21:18:20.539Z,89.04
2023-02-19T21:22:23.218Z,88.99
2023-02-19T21:26:33.046Z,89.29
2023-02-19T21:30:37.061Z,89.77
2023-02-19T21:34:39.664Z,90.35
2023-02-19T21:38:42.285Z,90.16
2023-02-19T21:42:44.895Z,90.62
2023-02-19T21:46:48.944Z,90.51
2023-02-19T21:50:51.527Z,90.39
2023-02-19T21:54:54.339Z,90.60
2023-02-19T21:58:57.104Z,90.82
2023-02-19T22:03:01.116Z,90.73
2023-02-19T22:07:03.743Z,90.55
2023-02-19T22:11:06.482Z,91.01
2023-02-19T22:15:09.355Z,90.53
2023-02-19T22:19:14.366Z,90.08
2023-02-19T22:23:16.957Z,89.96
2023-02-19T22:27:19.690Z,89.80
2023-02-19T22:31:25.147Z,89.21
2023-02-19T22:35:29.398Z,89.43
2023-02-19T22:39:32.041Z,89.61
2023-02-19T22:43:34.703Z,89.47
2023-02-19T22:47:37.326Z,89.37
2023-02-19T22:51:41.568Z,89.18
2023-02-19T22:55:44.129Z,89.38
2023-02-19T22:59:46.777Z,89.50
2023-02-19T23:03:51.629Z,89.28
2023-02-19T23:07:55.678Z,89.30
2023-02-19T23:12:02.992Z,89.14
2023-02-19T23:16:06.089Z,89.35
2023-02-19T23:20:09.506Z,89.36
2023-02-19T23:24:14.122Z,89.71
2023-02-19T23:28:16.784Z,89.49
2023-02-19T23:32:20.875Z,89.86
2023-02-19T23:36:24.038Z,89.84
2023-02-19T23:40:28.132Z,89.89
2023-02-19T23:44:30.781Z,89.82
2023-02-19T23:48:33.741Z,89.75
2023-02-19T23:52:36.345Z,89.91
2023-02-19T23:56:40.452Z,89.72
